Time;durP1;ratioP1;P1;durP2;ratioP2;P2;SDS_P1;SDS_P2;PMS_P1;PMS_P2;Temp;Humidity;BMP_temperature;BMP_pressure;BME280_temperature;BME280_humidity;BME280_pressure;Samples;Min_cycle;Max_cycle;Signal;HPM_P1;HPM_P2
2023/08/16 00:00:55;;;;;;;5.15;2.10;;;;;;;30.16;49.27;99343.16;5092832;28;20466;-67
2023/08/16 00:03:21;;;;;;;3.40;1.90;;;;;;;30.16;49.46;99356.63;5092945;28;20107;-66
2023/08/16 00:05:46;;;;;;;3.55;1.92;;;;;;;30.14;49.47;99354.09;5091601;28;20422;-66
2023/08/16 00:08:11;;;;;;;3.45;1.88;;;;;;;30.14;49.44;99353.25;5092932;28;20049;-65
2023/08/16 00:10:37;;;;;;;3.72;2.15;;;;;;;30.13;49.38;99347.00;5092812;28;20395;-66
2023/08/16 00:13:03;;;;;;;3.85;2.45;;;;;;;30.12;49.19;99345.31;5092308;28;20035;-66
2023/08/16 00:15:28;;;;;;;3.58;2.00;;;;;;;30.14;49.12;99350.56;5092716;28;20066;-66
2023/08/16 00:17:54;;;;;;;3.30;2.03;;;;;;;30.12;49.42;99339.13;5092826;28;20063;-67
2023/08/16 00:20:26;;;;;;;3.05;1.95;;;;;;;30.13;49.30;99343.50;5092738;28;20403;-67
2023/08/16 00:22:52;;;;;;;3.78;2.20;;;;;;;30.12;49.02;99339.94;5092752;28;20039;-66
2023/08/16 00:25:18;;;;;;;3.45;2.05;;;;;;;30.11;49.08;99340.13;5092706;28;20020;-66
2023/08/16 00:27:43;;;;;;;3.75;1.90;;;;;;;30.10;49.49;99341.09;5092138;28;20031;-67
2023/08/16 00:30:09;;;;;;;2.97;2.05;;;;;;;30.10;49.49;99338.41;5092529;28;20403;-66
2023/08/16 00:32:35;;;;;;;3.17;1.90;;;;;;;30.09;49.40;99339.41;5092530;28;20028;-66
2023/08/16 00:35:00;;;;;;;2.83;2.00;;;;;;;30.10;49.13;99341.97;5092260;28;20050;-66
2023/08/16 00:37:26;;;;;;;3.33;2.22;;;;;;;30.10;49.25;99341.09;5092278;28;20028;-66
2023/08/16 00:39:51;;;;;;;2.92;2.00;;;;;;;30.08;49.44;99335.88;5091855;28;20020;-66
2023/08/16 00:42:17;;;;;;;4.00;2.30;;;;;;;30.08;49.46;99332.31;5092102;28;20391;-66
2023/08/16 00:44:42;;;;;;;3.70;2.08;;;;;;;30.08;49.16;99332.31;5091092;28;20028;-65
2023/08/16 00:47:07;;;;;;;3.28;2.00;;;;;;;30.07;49.21;99330.63;5092225;28;20032;-66
2023/08/16 00:49:33;;;;;;;3.70;1.88;;;;;;;30.07;49.10;99336.03;5092351;28;20032;-66
2023/08/16 00:52:00;;;;;;;3.67;2.47;;;;;;;30.07;49.32;99336.03;5090970;28;20434;-66
2023/08/16 00:54:26;;;;;;;3.83;2.10;;;;;;;30.05;49.20;99328.09;5091701;28;20082;-66
2023/08/16 00:56:52;;;;;;;4.13;2.30;;;;;;;30.05;49.40;99332.63;5092176;28;20039;-66
2023/08/16 00:59:19;;;;;;;3.03;1.90;;;;;;;30.05;49.30;99333.47;5092102;28;20449;-65
2023/08/16 01:01:45;;;;;;;4.30;2.22;;;;;;;30.05;49.22;99327.25;5091847;28;20044;-66
2023/08/16 01:04:11;;;;;;;3.35;1.83;;;;;;;30.04;49.16;99337.19;5092198;28;20024;-66
2023/08/16 01:06:36;;;;;;;4.90;1.95;;;;;;;30.05;49.18;99327.25;5092207;28;20020;-66
2023/08/16 01:09:03;;;;;;;3.30;1.95;;;;;;;30.03;49.41;99330.09;5091825;28;20085;-66
2023/08/16 01:11:38;;;;;;;4.35;2.05;;;;;;;30.02;49.29;99331.13;5092091;28;20078;-66
2023/08/16 01:14:13;;;;;;;4.15;2.00;;;;;;;30.01;49.04;99322.19;5091983;28;20474;-66
2023/08/16 01:16:39;;;;;;;4.70;2.30;;;;;;;30.01;49.13;99332.94;5091717;28;20111;-66
2023/08/16 01:19:10;;;;;;;3.38;1.83;;;;;;;30.02;49.12;99331.13;5091979;28;20647;-66
2023/08/16 01:21:46;;;;;;;3.90;2.08;;;;;;;30.00;49.06;99325.88;5091714;28;20040;-65
2023/08/16 01:24:22;;;;;;;3.70;2.10;;;;;;;30.01;49.21;99335.63;5091599;28;20023;-66
2023/08/16 01:26:49;;;;;;;5.80;2.33;;;;;;;30.00;49.20;99331.28;5092105;28;20035;-67
2023/08/16 01:29:17;;;;;;;4.25;1.80;;;;;;;30.00;49.15;99325.03;5091809;28;20028;-66
2023/08/16 01:31:44;;;;;;;4.35;2.20;;;;;;;29.99;49.22;99323.34;5091926;28;20473;-66
2023/08/16 01:34:09;;;;;;;3.60;1.90;;;;;;;29.98;49.29;99325.19;5091764;28;20353;-66
2023/08/16 01:36:35;;;;;;;4.13;1.90;;;;;;;29.98;48.97;99322.50;5091812;28;20084;-66
2023/08/16 01:39:00;;;;;;;4.22;2.10;;;;;;;29.99;49.02;99324.19;5091190;28;20103;-67
2023/08/16 01:41:40;;;;;;;4.07;2.33;;;;;;;29.97;49.07;99310.03;5091718;28;20061;-66
2023/08/16 01:44:08;;;;;;;4.47;2.08;;;;;;;29.96;49.26;99311.06;5091797;28;20389;-66
2023/08/16 01:46:35;;;;;;;3.95;2.13;;;;;;;29.95;49.41;99312.06;5091577;28;20396;-66
2023/08/16 01:49:01;;;;;;;4.38;2.00;;;;;;;29.95;49.00;99311.19;5091727;28;20028;-67
2023/08/16 01:51:27;;;;;;;2.88;1.60;;;;;;;29.94;49.29;99307.69;5091899;28;20016;-66
2023/08/16 01:53:53;;;;;;;2.95;1.85;;;;;;;29.94;49.15;99306.81;5091366;28;20504;-65
2023/08/16 01:56:20;;;;;;;3.15;1.92;;;;;;;29.93;49.12;99303.31;5091504;28;20050;-66
2023/08/16 01:58:46;;;;;;;3.50;1.98;;;;;;;29.93;49.00;99303.31;5091645;28;20031;-66
2023/08/16 02:01:12;;;;;;;4.25;2.25;;;;;;;29.92;49.08;99298.91;5091581;28;20051;-66
2023/08/16 02:03:38;;;;;;;3.97;2.05;;;;;;;29.92;49.18;99309.66;5091576;28;20081;-66
2023/08/16 02:06:03;;;;;;;4.13;1.85;;;;;;;29.93;49.15;99306.00;5093319;28;20028;-66
2023/08/16 02:08:29;;;;;;;4.40;2.03;;;;;;;29.91;49.18;99309.84;5093435;28;20029;-67
2023/08/16 02:10:54;;;;;;;2.97;1.70;;;;;;;29.90;49.13;99313.50;5095049;28;20024;-66
2023/08/16 02:13:19;;;;;;;3.70;1.88;;;;;;;29.89;49.14;99312.69;5095024;28;20545;-66
2023/08/16 02:15:45;;;;;;;3.63;2.15;;;;;;;29.88;49.12;99311.81;5093693;28;20032;-66
2023/08/16 02:18:10;;;;;;;3.30;1.88;;;;;;;29.87;48.86;99303.91;5094842;28;20024;-66
2023/08/16 02:20:40;;;;;;;3.92;1.80;;;;;;;29.87;49.16;99303.91;5094948;28;20028;-67
2023/08/16 02:23:06;;;;;;;3.80;1.98;;;;;;;29.85;49.07;99314.84;5094450;28;20111;-66
2023/08/16 02:25:31;;;;;;;3.38;2.00;;;;;;;29.85;49.08;99305.91;5094811;28;20112;-67
2023/08/16 02:27:57;;;;;;;3.33;2.00;;;;;;;29.84;49.26;99313.16;5094751;28;20127;-66
2023/08/16 02:30:22;;;;;;;4.65;2.17;;;;;;;29.84;49.16;99304.22;5094862;28;20156;-66
2023/08/16 02:32:48;;;;;;;3.53;1.92;;;;;;;29.85;49.05;99308.59;5094718;28;20020;-67
2023/08/16 02:35:13;;;;;;;3.42;1.80;;;;;;;29.82;49.12;99312.44;5094579;28;20028;-66
2023/08/16 02:37:42;;;;;;;2.83;1.85;;;;;;;29.83;48.86;99302.56;5093012;28;20020;-67
2023/08/16 02:40:08;;;;;;;3.90;2.13;;;;;;;29.82;49.16;99296.31;5094919;28;20392;-67
2023/08/16 02:42:33;;;;;;;3.80;2.00;;;;;;;29.81;48.83;99289.25;5094573;28;20055;-66
2023/08/16 02:44:59;;;;;;;4.05;2.28;;;;;;;29.81;48.90;99291.09;5094409;28;20423;-66
2023/08/16 02:47:24;;;;;;;3.47;1.80;;;;;;;29.81;49.01;99288.41;5094665;28;20020;-66
2023/08/16 02:49:49;;;;;;;3.30;1.75;;;;;;;29.81;49.10;99291.09;5094334;28;20020;-66
2023/08/16 02:52:15;;;;;;;3.42;1.85;;;;;;;29.80;49.08;99278.66;5093939;28;20503;-67
2023/08/16 02:54:41;;;;;;;3.15;1.98;;;;;;;29.80;48.84;99282.19;5081483;28;20169;-64
2023/08/16 02:57:06;;;;;;;3.28;1.90;;;;;;;29.79;49.04;99282.34;5083106;28;20073;-68
2023/08/16 02:59:42;;;;;;;3.92;2.30;;;;;;;29.79;48.84;99282.34;5094291;28;20048;-66
2023/08/16 03:02:08;;;;;;;3.83;2.13;;;;;;;29.79;48.82;99285.03;5093948;28;20044;-66
2023/08/16 03:04:39;;;;;;;3.50;1.92;;;;;;;29.77;48.94;99287.03;5094066;28;20112;-66
2023/08/16 03:07:08;;;;;;;4.32;2.30;;;;;;;29.76;48.79;99279.97;5080456;28;20040;-66
2023/08/16 03:09:34;;;;;;;4.57;1.83;;;;;;;29.76;49.15;99288.06;5073731;28;20028;-66
2023/08/16 03:11:59;;;;;;;3.00;1.88;;;;;;;29.73;49.23;99273.91;5073816;28;20020;-66
2023/08/16 03:14:24;;;;;;;4.57;2.33;;;;;;;29.74;48.79;99269.38;5088566;28;20032;-66
2023/08/16 03:16:50;;;;;;;2.95;1.73;;;;;;;29.72;49.00;99269.53;5092926;28;20036;-66
2023/08/16 03:19:15;;;;;;;3.00;1.80;;;;;;;29.71;48.70;99262.47;5093438;28;20081;-67
2023/08/16 03:21:41;;;;;;;3.72;2.20;;;;;;;29.70;48.93;99268.84;5092085;28;20400;-66
2023/08/16 03:24:06;;;;;;;4.70;2.33;;;;;;;29.71;48.92;99262.47;5093669;28;20484;-67
2023/08/16 03:26:36;;;;;;;3.55;1.88;;;;;;;29.70;49.06;99268.84;5093454;28;20028;-66
2023/08/16 03:29:02;;;;;;;3.08;1.73;;;;;;;29.70;48.75;99271.53;5093287;28;20036;-66
2023/08/16 03:31:28;;;;;;;3.28;1.90;;;;;;;29.70;48.99;99274.22;5093411;28;20028;-65
2023/08/16 03:33:53;;;;;;;4.43;2.10;;;;;;;29.68;49.20;99273.50;5093277;28;20035;-66
2023/08/16 03:36:18;;;;;;;4.45;2.05;;;;;;;29.69;49.00;99269.00;5092156;28;20492;-66
2023/08/16 03:38:44;;;;;;;3.15;1.80;;;;;;;29.68;48.85;99268.13;5093322;28;20032;-66
2023/08/16 03:41:09;;;;;;;3.55;1.83;;;;;;;29.68;49.18;99257.38;5093457;28;20032;-66
2023/08/16 03:43:38;;;;;;;3.03;1.83;;;;;;;29.66;49.24;99263.91;5093479;28;20027;-66
2023/08/16 03:46:04;;;;;;;3.95;2.28;;;;;;;29.66;48.73;99267.47;5093225;28;20028;-66
2023/08/16 03:48:30;;;;;;;3.45;2.03;;;;;;;29.66;48.84;99275.53;5092872;28;20107;-67
2023/08/16 03:50:56;;;;;;;3.47;1.90;;;;;;;29.66;48.82;99275.53;5093566;28;20080;-65
2023/08/16 03:53:22;;;;;;;3.40;1.70;;;;;;;29.68;48.96;99273.50;5093233;28;20514;-67
2023/08/16 03:55:47;;;;;;;3.75;2.25;;;;;;;29.67;49.14;99271.00;5093168;28;20032;-67
2023/08/16 03:58:13;;;;;;;3.88;1.83;;;;;;;29.65;48.74;99263.09;5092838;28;20028;-65
2023/08/16 04:00:40;;;;;;;3.78;1.90;;;;;;;29.66;48.83;99270.16;5092839;28;20126;-66
2023/08/16 04:03:06;;;;;;;3.65;1.90;;;;;;;29.65;48.78;99268.47;5092746;28;20024;-67
2023/08/16 04:05:32;;;;;;;3.30;1.80;;;;;;;29.66;48.59;99283.59;5092989;28;20028;-66
2023/08/16 04:07:58;;;;;;;4.60;2.10;;;;;;;29.65;48.93;99292.66;5092950;28;20124;-66
2023/08/16 04:10:23;;;;;;;3.47;2.00;;;;;;;29.65;48.73;99289.97;5092813;28;20048;-66
2023/08/16 04:12:49;;;;;;;3.13;1.77;;;;;;;29.65;48.96;99295.34;5092832;28;20396;-67
2023/08/16 04:15:14;;;;;;;3.50;1.90;;;;;;;29.65;49.01;99298.03;5092828;28;20035;-67
2023/08/16 04:17:40;;;;;;;3.08;1.77;;;;;;;29.64;48.86;99304.41;5092155;28;20081;-66
2023/08/16 04:20:07;;;;;;;4.38;2.05;;;;;;;29.64;48.77;99309.81;5092683;28;20020;-66
2023/08/16 04:22:33;;;;;;;3.00;1.70;;;;;;;29.62;49.05;99314.47;5092652;28;20481;-67
2023/08/16 04:24:59;;;;;;;3.17;1.80;;;;;;;29.61;48.84;99310.94;5092655;28;20024;-66
2023/08/16 04:27:24;;;;;;;3.28;1.80;;;;;;;29.61;49.04;99312.78;5092609;28;20111;-67
2023/08/16 04:29:50;;;;;;;3.88;2.17;;;;;;;29.61;48.97;99304.72;5092071;28;20491;-66
2023/08/16 04:32:15;;;;;;;3.65;1.90;;;;;;;29.61;48.82;99293.97;5092037;28;20099;-65
2023/08/16 04:34:41;;;;;;;3.20;1.90;;;;;;;29.60;49.01;99301.16;5091351;28;20020;-66
2023/08/16 04:37:06;;;;;;;3.05;1.83;;;;;;;29.60;49.01;99309.22;5090835;28;20549;-67
2023/08/16 04:39:31;;;;;;;3.90;2.08;;;;;;;29.59;49.04;99312.94;5082033;28;20031;-66
2023/08/16 04:41:57;;;;;;;3.67;1.90;;;;;;;29.60;48.68;99308.41;5072193;28;20516;-67
2023/08/16 04:44:22;;;;;;;3.53;1.85;;;;;;;29.60;48.73;99311.94;5072319;28;20025;-67
2023/08/16 04:46:49;;;;;;;4.15;2.17;;;;;;;29.59;49.16;99306.72;5071691;28;20020;-67
2023/08/16 04:49:15;;;;;;;3.50;2.00;;;;;;;29.58;49.00;99305.03;5072048;28;20023;-66
2023/08/16 04:51:40;;;;;;;3.38;2.22;;;;;;;29.58;49.01;99294.28;5072126;28;20028;-66
2023/08/16 04:54:07;;;;;;;4.05;2.20;;;;;;;29.58;49.00;99291.59;5072169;28;20021;-66
2023/08/16 04:56:33;;;;;;;3.40;2.20;;;;;;;29.57;48.82;99298.81;5071727;28;20121;-66
2023/08/16 04:58:58;;;;;;;4.18;1.95;;;;;;;29.57;49.05;99298.81;5071760;28;20059;-65
2023/08/16 05:01:23;;;;;;;3.42;1.75;;;;;;;29.58;48.83;99299.66;5071455;28;20044;-68
2023/08/16 05:03:52;;;;;;;3.47;1.77;;;;;;;29.56;48.96;99296.25;5071758;28;20102;-68
2023/08/16 05:06:18;;;;;;;3.15;2.10;;;;;;;29.55;49.07;99289.22;5072008;28;20149;-65
2023/08/16 05:08:44;;;;;;;5.18;2.03;;;;;;;29.56;48.83;99290.88;5076240;28;20034;-66
2023/08/16 05:11:09;;;;;;;3.95;2.20;;;;;;;29.53;48.83;99293.91;5090068;28;20038;-68
2023/08/16 05:13:35;;;;;;;5.47;2.28;;;;;;;29.53;48.86;99296.59;5091766;28;20020;-70
2023/08/16 05:16:01;;;;;;;3.85;2.10;;;;;;;29.52;48.99;99289.50;5091411;28;20028;-68
2023/08/16 05:18:26;;;;;;;4.75;2.20;;;;;;;29.52;48.89;99279.59;5091864;28;20042;-68
2023/08/16 05:20:55;;;;;;;3.10;2.20;;;;;;;29.49;49.16;99274.56;5091975;28;20111;-67
2023/08/16 05:23:21;;;;;;;4.72;2.15;;;;;;;29.50;49.13;99278.06;5092009;28;20032;-67
2023/08/16 05:25:46;;;;;;;3.78;2.13;;;;;;;29.48;49.22;99289.81;5091915;28;20038;-67
2023/08/16 05:28:11;;;;;;;4.22;2.10;;;;;;;29.47;49.28;99298.88;5091911;28;20040;-67
2023/08/16 05:30:37;;;;;;;3.92;2.20;;;;;;;29.43;49.37;99310.91;5091752;28;20107;-67
2023/08/16 05:33:03;;;;;;;4.55;2.55;;;;;;;29.44;49.33;99317.97;5091906;28;20107;-67
2023/08/16 05:35:32;;;;;;;3.95;2.25;;;;;;;29.44;49.21;99314.44;5077760;28;20017;-67
2023/08/16 05:37:58;;;;;;;4.45;2.20;;;;;;;29.45;48.93;99314.28;5072355;28;20021;-68
2023/08/16 05:40:23;;;;;;;4.03;2.33;;;;;;;29.42;49.21;99306.53;5071911;28;20016;-68
2023/08/16 05:42:49;;;;;;;3.78;2.10;;;;;;;29.43;49.24;99308.22;5088674;28;20019;-68
2023/08/16 05:45:14;;;;;;;4.85;2.42;;;;;;;29.41;49.34;99315.59;5090590;28;20040;-67
2023/08/16 05:47:39;;;;;;;3.60;2.15;;;;;;;29.41;49.11;99309.38;5086198;28;20047;-67
2023/08/16 05:50:05;;;;;;;4.00;2.15;;;;;;;29.41;49.26;99304.00;5095587;28;20107;-67
2023/08/16 05:52:31;;;;;;;3.47;2.40;;;;;;;29.38;49.18;99305.16;5095210;28;20047;-68
2023/08/16 05:54:56;;;;;;;4.22;2.45;;;;;;;29.38;48.88;99307.84;5095534;28;20099;-67
2023/08/16 05:57:22;;;;;;;3.70;2.28;;;;;;;29.35;49.05;99310.84;5095147;28;20044;-67
2023/08/16 05:59:47;;;;;;;5.20;2.08;;;;;;;29.38;49.17;99312.38;5095060;28;20028;-67
2023/08/16 06:02:12;;;;;;;4.35;2.40;;;;;;;29.35;49.18;99310.84;5095180;28;20633;-68
2023/08/16 06:04:38;;;;;;;4.03;2.28;;;;;;;29.34;49.18;99314.50;5095170;28;20039;-67
2023/08/16 06:07:04;;;;;;;3.92;2.17;;;;;;;29.30;49.17;99308.59;5095280;28;20488;-68
2023/08/16 06:09:31;;;;;;;3.63;2.25;;;;;;;29.31;49.11;99320.19;5093792;28;20040;-67
2023/08/16 06:11:56;;;;;;;3.45;1.90;;;;;;;29.30;49.02;99318.50;5095188;28;20423;-67
2023/08/16 06:14:22;;;;;;;4.88;2.33;;;;;;;29.29;49.33;99317.66;5094844;28;20028;-68
2023/08/16 06:16:47;;;;;;;3.65;2.08;;;;;;;29.27;48.88;99334.91;5093803;28;20040;-68
2023/08/16 06:19:16;;;;;;;4.10;2.00;;;;;;;29.25;48.99;99332.41;5095028;28;20107;-68
2023/08/16 06:21:41;;;;;;;3.40;2.00;;;;;;;29.26;49.12;99325.19;5094019;28;20024;-68
2023/08/16 06:24:08;;;;;;;4.18;2.17;;;;;;;29.25;48.96;99326.19;5095157;28;20027;-68
2023/08/16 06:26:34;;;;;;;3.70;2.00;;;;;;;29.25;49.13;99326.19;5095078;28;20032;-67
2023/08/16 06:28:59;;;;;;;3.33;2.03;;;;;;;29.25;48.96;99328.88;5093552;28;20028;-68
2023/08/16 06:31:25;;;;;;;3.85;2.00;;;;;;;29.25;49.37;99320.81;5094690;28;20472;-68
2023/08/16 06:33:51;;;;;;;4.68;2.03;;;;;;;29.24;49.14;99319.13;5094811;28;20024;-67
2023/08/16 06:36:16;;;;;;;3.63;2.05;;;;;;;29.23;48.97;99322.81;5094589;28;20118;-67
2023/08/16 06:38:43;;;;;;;2.65;1.70;;;;;;;29.24;49.02;99330.69;5094693;28;20020;-68
2023/08/16 06:41:09;;;;;;;3.10;1.90;;;;;;;29.20;49.03;99324.78;5094742;28;20392;-69
2023/08/16 06:43:34;;;;;;;3.35;2.05;;;;;;;29.21;49.37;99326.47;5094204;28;20032;-68
2023/08/16 06:46:00;;;;;;;2.90;1.80;;;;;;;29.24;49.35;99335.25;5094666;28;20024;-68
2023/08/16 06:48:25;;;;;;;3.95;2.00;;;;;;;29.23;48.83;99328.19;5093102;28;20101;-67
2023/08/16 06:50:50;;;;;;;3.00;2.13;;;;;;;29.22;49.37;99321.94;5094385;28;20032;-68
2023/08/16 06:53:16;;;;;;;3.97;2.10;;;;;;;29.24;49.25;99319.13;5094280;28;20142;-68
2023/08/16 06:55:41;;;;;;;3.50;2.20;;;;;;;29.25;49.01;99318.13;5094187;28;20028;-68
2023/08/16 06:58:07;;;;;;;4.53;2.33;;;;;;;29.25;48.82;99316.28;5094027;28;20054;-67
2023/08/16 07:00:33;;;;;;;2.35;1.52;;;;;;;29.27;49.15;99318.78;5094111;28;20137;-68
2023/08/16 07:03:00;;;;;;;2.95;1.90;;;;;;;29.25;48.90;99321.66;5094118;28;20024;-69
2023/08/16 07:05:26;;;;;;;2.85;1.95;;;;;;;29.27;48.92;99324.16;5094284;28;20052;-67
2023/08/16 07:07:52;;;;;;;4.13;1.90;;;;;;;29.26;48.88;99327.84;5094083;28;20027;-69
2023/08/16 07:10:18;;;;;;;3.15;2.10;;;;;;;29.27;49.16;99326.88;5093990;28;20024;-68
2023/08/16 07:12:44;;;;;;;2.58;1.70;;;;;;;29.27;49.16;99335.78;5093657;28;20028;-68
2023/08/16 07:15:13;;;;;;;2.92;2.00;;;;;;;29.29;49.03;99338.31;5093738;28;20022;-69
2023/08/16 07:17:39;;;;;;;3.20;1.90;;;;;;;29.30;49.21;99348.06;5092429;28;20016;-68
2023/08/16 07:20:08;;;;;;;2.65;1.77;;;;;;;29.32;48.97;99338.00;5093927;28;20107;-67
2023/08/16 07:22:36;;;;;;;3.05;1.73;;;;;;;29.31;48.97;99330.94;5093863;28;20016;-67
2023/08/16 07:25:02;;;;;;;3.92;1.63;;;;;;;29.30;48.96;99335.47;5093827;28;20020;-68
2023/08/16 07:27:27;;;;;;;3.25;1.88;;;;;;;29.32;48.61;99332.63;5093384;28;20024;-67
2023/08/16 07:29:52;;;;;;;2.55;1.80;;;;;;;29.34;48.75;99336.00;5093784;28;20031;-68
2023/08/16 07:32:18;;;;;;;2.63;1.70;;;;;;;29.35;49.11;99337.72;5093569;28;20099;-68
2023/08/16 07:34:44;;;;;;;3.63;1.73;;;;;;;29.33;48.85;99335.16;5093466;28;20392;-68
2023/08/16 07:37:11;;;;;;;2.60;1.67;;;;;;;29.35;48.75;99332.34;5093470;28;20031;-67
2023/08/16 07:39:36;;;;;;;2.65;1.70;;;;;;;29.35;48.87;99337.72;5093303;28;20488;-69
2023/08/16 07:42:01;;;;;;;3.90;2.20;;;;;;;29.37;48.81;99332.16;5093235;28;20069;-69
2023/08/16 07:44:27;;;;;;;3.10;1.65;;;;;;;29.35;49.01;99326.97;5093443;28;20016;-68
2023/08/16 07:46:52;;;;;;;2.55;1.55;;;;;;;29.37;48.79;99335.72;5093333;28;20043;-68
2023/08/16 07:49:18;;;;;;;3.53;2.05;;;;;;;29.37;48.97;99335.72;5091927;28;20103;-67
2023/08/16 07:51:43;;;;;;;3.00;1.77;;;;;;;29.36;48.86;99339.41;5093062;28;20103;-68
2023/08/16 07:54:08;;;;;;;2.72;1.83;;;;;;;29.38;48.51;99337.38;5093357;28;20373;-67
2023/08/16 07:56:34;;;;;;;2.80;1.60;;;;;;;29.36;49.00;99339.41;5092724;28;20062;-67
2023/08/16 07:58:59;;;;;;;3.97;1.77;;;;;;;29.37;48.60;99329.47;5093070;28;20461;-67
2023/08/16 08:01:25;;;;;;;3.63;1.77;;;;;;;29.37;48.55;99335.72;5092972;28;20040;-68
2023/08/16 08:03:50;;;;;;;3.35;1.77;;;;;;;29.38;48.82;99340.09;5092311;28;20027;-67
2023/08/16 08:06:15;;;;;;;3.40;2.00;;;;;;;29.38;48.80;99336.56;5091702;28;20554;-70
2023/08/16 08:08:41;;;;;;;2.13;1.52;;;;;;;29.38;48.64;99342.75;5092826;28;20035;-67
2023/08/16 08:11:09;;;;;;;3.30;1.80;;;;;;;29.38;48.85;99345.44;5091355;28;20110;-68
2023/08/16 08:13:34;;;;;;;2.70;1.83;;;;;;;29.39;48.56;99349.81;5108402;28;20391;-68
2023/08/16 08:16:00;;;;;;;3.65;1.80;;;;;;;29.37;48.80;99343.78;5092739;28;20032;-67
2023/08/16 08:18:26;;;;;;;3.08;1.85;;;;;;;29.38;48.79;99348.16;5092870;28;20036;-70
2023/08/16 08:20:51;;;;;;;2.70;1.75;;;;;;;29.38;48.88;99352.69;5092618;28;20503;-70
2023/08/16 08:23:17;;;;;;;2.78;1.60;;;;;;;29.38;48.47;99358.88;5092692;28;20107;-67
2023/08/16 08:25:44;;;;;;;2.50;1.70;;;;;;;29.39;48.85;99355.19;5090893;28;20028;-69
2023/08/16 08:28:10;;;;;;;2.63;1.42;;;;;;;29.40;48.42;99356.91;5092588;28;20024;-67
2023/08/16 08:30:35;;;;;;;3.63;1.80;;;;;;;29.39;48.75;99349.81;5092512;28;20028;-68
2023/08/16 08:33:01;;;;;;;2.47;1.60;;;;;;;29.39;48.70;99357.06;5108153;28;20028;-68
2023/08/16 08:35:26;;;;;;;2.72;1.67;;;;;;;29.38;48.67;99358.06;5092515;28;20028;-68
2023/08/16 08:37:52;;;;;;;2.40;1.60;;;;;;;29.39;48.93;99354.38;5092297;28;20016;-68
2023/08/16 08:40:19;;;;;;;2.53;1.60;;;;;;;29.38;48.59;99361.59;5092161;28;20144;-68
2023/08/16 08:42:49;;;;;;;2.47;1.60;;;;;;;29.39;48.62;99362.44;5092565;28;20024;-68
2023/08/16 08:45:15;;;;;;;2.13;1.50;;;;;;;29.39;48.72;99363.25;5092384;28;20028;-68
2023/08/16 08:47:43;;;;;;;2.60;1.58;;;;;;;29.41;48.65;99365.81;5092191;28;20023;-68
2023/08/16 08:50:09;;;;;;;2.70;1.70;;;;;;;29.40;48.72;99367.66;5092396;28;20020;-68
2023/08/16 08:52:34;;;;;;;3.03;1.75;;;;;;;29.41;48.62;99361.28;5092380;28;20039;-67
2023/08/16 08:55:01;;;;;;;2.90;1.80;;;;;;;29.39;48.87;99363.25;5091778;28;20108;-68
2023/08/16 08:57:28;;;;;;;2.58;1.70;;;;;;;29.42;48.73;99365.66;5090735;28;20028;-68
2023/08/16 08:59:57;;;;;;;2.70;1.50;;;;;;;29.43;48.55;99367.34;5092457;28;20032;-68
2023/08/16 09:02:24;;;;;;;2.35;1.63;;;;;;;29.43;48.47;99372.72;5090597;28;20500;-68
2023/08/16 09:04:51;;;;;;;2.85;1.92;;;;;;;29.44;48.60;99363.66;5092261;28;20398;-67
2023/08/16 09:07:18;;;;;;;3.45;1.65;;;;;;;29.43;48.58;99367.34;5092159;28;20556;-68
2023/08/16 09:09:48;;;;;;;2.17;1.50;;;;;;;29.43;48.85;99367.34;5092098;28;20069;-69
2023/08/16 09:12:14;;;;;;;2.60;1.80;;;;;;;29.46;48.61;99371.56;5092222;28;20024;-68
2023/08/16 09:14:40;;;;;;;2.45;1.60;;;;;;;29.45;48.79;99367.22;5093354;28;20031;-67
2023/08/16 09:17:05;;;;;;;2.40;1.60;;;;;;;29.45;48.78;99369.91;5096202;28;20032;-67
2023/08/16 09:19:30;;;;;;;2.55;1.65;;;;;;;29.45;48.69;99380.66;5094843;28;20081;-67
2023/08/16 09:21:56;;;;;;;2.45;1.60;;;;;;;29.46;48.67;99376.94;5095889;28;20032;-68
2023/08/16 09:24:25;;;;;;;2.15;1.55;;;;;;;29.46;48.84;99367.06;5096100;28;20027;-68
2023/08/16 09:26:52;;;;;;;2.20;1.65;;;;;;;29.46;48.60;99372.44;5095678;28;20125;-68
2023/08/16 09:29:18;;;;;;;2.28;1.60;;;;;;;29.47;48.64;99368.75;5096056;28;20039;-68
2023/08/16 09:31:43;;;;;;;2.80;1.70;;;;;;;29.46;48.55;99367.06;5096203;28;20028;-68
2023/08/16 09:34:11;;;;;;;2.30;1.50;;;;;;;29.46;48.48;99361.69;5095902;28;20461;-67
2023/08/16 09:36:37;;;;;;;2.38;1.70;;;;;;;29.48;48.45;99358.84;5095512;28;20036;-68
2023/08/16 09:39:07;;;;;;;2.00;1.52;;;;;;;29.48;48.39;99359.72;5095946;28;20046;-68
2023/08/16 09:41:32;;;;;;;2.63;1.60;;;;;;;29.51;48.37;99368.47;5095838;28;20031;-69
2023/08/16 09:44:06;;;;;;;2.53;1.70;;;;;;;29.50;48.49;99372.16;5095855;28;20444;-68
2023/08/16 09:46:35;;;;;;;2.42;1.40;;;;;;;29.53;48.42;99371.84;5095633;28;20103;-68
2023/08/16 09:49:06;;;;;;;2.38;1.65;;;;;;;29.52;48.64;99372.81;5094422;28;20099;-67
2023/08/16 09:51:36;;;;;;;2.72;1.85;;;;;;;29.52;48.45;99370.13;5095271;28;20028;-68
2023/08/16 09:54:08;;;;;;;2.83;1.83;;;;;;;29.54;48.44;99378.91;5095827;28;20380;-67
2023/08/16 09:56:34;;;;;;;2.65;1.60;;;;;;;29.54;48.37;99379.75;5095484;28;20054;-68
2023/08/16 09:59:00;;;;;;;3.70;1.85;;;;;;;29.55;48.68;99375.22;5095672;28;20024;-68
2023/08/16 10:01:26;;;;;;;2.45;1.48;;;;;;;29.57;48.39;99375.91;5095389;28;20052;-68
2023/08/16 10:03:53;;;;;;;2.13;1.38;;;;;;;29.58;48.47;99380.31;5095581;28;20105;-69
2023/08/16 10:06:23;;;;;;;3.55;1.70;;;;;;;29.59;48.56;99371.25;5094975;28;20035;-69
2023/08/16 10:08:52;;;;;;;2.50;1.67;;;;;;;29.60;48.46;99375.63;5095268;28;20376;-68
2023/08/16 10:11:18;;;;;;;2.67;1.80;;;;;;;29.60;48.37;99371.06;5094943;28;20032;-68
2023/08/16 10:13:44;;;;;;;2.72;1.73;;;;;;;29.62;48.45;99368.22;5095100;28;20024;-68
2023/08/16 10:16:14;;;;;;;2.92;1.70;;;;;;;29.61;48.66;99364.72;5095218;28;20028;-67
2023/08/16 10:18:43;;;;;;;3.38;1.80;;;;;;;29.62;48.52;99365.53;5095077;28;20706;-68
2023/08/16 10:21:20;;;;;;;3.38;1.55;;;;;;;29.64;48.20;99362.72;5094538;28;20498;-67
2023/08/16 10:23:47;;;;;;;2.90;1.80;;;;;;;29.65;48.24;99354.50;5095026;28;20097;-68
2023/08/16 10:26:14;;;;;;;2.50;1.60;;;;;;;29.66;48.18;99349.94;5094419;28;20024;-69
2023/08/16 10:28:44;;;;;;;3.00;1.70;;;;;;;29.65;48.14;99333.00;5094909;28;20031;-68
2023/08/16 10:31:11;;;;;;;2.15;1.70;;;;;;;29.68;48.22;99332.66;5094810;28;20031;-68
2023/08/16 10:33:39;;;;;;;2.80;1.88;;;;;;;29.69;48.26;99338.91;5094832;28;20373;-68
2023/08/16 10:36:06;;;;;;;2.58;1.80;;;;;;;29.70;48.29;99340.59;5094173;28;20385;-68
2023/08/16 10:38:38;;;;;;;2.53;1.80;;;;;;;29.70;48.11;99330.69;5094583;28;20032;-67
2023/08/16 10:41:14;;;;;;;2.35;1.52;;;;;;;29.70;48.20;99322.63;5094685;28;20044;-67
2023/08/16 10:43:49;;;;;;;2.60;1.80;;;;;;;29.71;48.46;99327.00;5094595;28;20028;-68
2023/08/16 10:46:28;;;;;;;1.95;1.48;;;;;;;29.71;48.34;99326.13;5094599;28;20043;-67
2023/08/16 10:48:58;;;;;;;1.92;1.38;;;;;;;29.72;48.32;99328.69;5094157;28;20077;-67
2023/08/16 10:51:24;;;;;;;2.00;1.40;;;;;;;29.72;48.46;99323.31;5094659;28;20020;-67
2023/08/16 10:53:50;;;;;;;2.75;1.80;;;;;;;29.71;48.20;99316.25;5094434;28;20076;-68
2023/08/16 10:56:18;;;;;;;2.15;1.60;;;;;;;29.72;48.34;99322.44;5092913;28;20400;-68
2023/08/16 10:58:49;;;;;;;2.97;1.75;;;;;;;29.73;48.38;99325.00;5094228;28;20021;-68
2023/08/16 11:01:15;;;;;;;2.15;1.60;;;;;;;29.73;48.02;99322.28;5094180;28;20093;-68
2023/08/16 11:03:43;;;;;;;2.53;1.60;;;;;;;29.74;48.20;99337.44;5094009;28;20373;-67
2023/08/16 11:06:11;;;;;;;2.67;1.70;;;;;;;29.74;48.42;99332.03;5094156;28;20028;-67
2023/08/16 11:08:44;;;;;;;1.85;1.48;;;;;;;29.76;48.41;99328.38;5094089;28;20400;-68
2023/08/16 11:11:11;;;;;;;2.47;1.60;;;;;;;29.76;48.25;99333.75;5094079;28;20056;-67
2023/08/16 11:13:38;;;;;;;2.90;1.80;;;;;;;29.74;48.49;99326.66;5093990;28;20027;-67
2023/08/16 11:16:04;;;;;;;1.90;1.35;;;;;;;29.76;48.18;99331.06;5093844;28;20028;-68
2023/08/16 11:18:33;;;;;;;2.40;1.35;;;;;;;29.76;48.54;99333.75;5092160;28;20020;-67
2023/08/16 11:20:59;;;;;;;1.95;1.42;;;;;;;29.77;48.29;99335.44;5093992;28;20119;-68
2023/08/16 11:23:32;;;;;;;3.20;1.90;;;;;;;29.78;48.61;99331.75;5093881;28;20107;-68
2023/08/16 11:26:03;;;;;;;2.70;1.73;;;;;;;29.78;48.40;99331.75;5093793;28;20030;-69
2023/08/16 11:28:30;;;;;;;2.38;1.70;;;;;;;29.78;48.26;99326.38;5092395;28;20118;-68
2023/08/16 11:30:56;;;;;;;2.25;1.58;;;;;;;29.79;48.11;99314.63;5093658;28;20048;-68